This is the latest recevied weather packets stored in our database for station/object KN6WGU. If no packets are shown the sender has not sent any weather packets the latest 10 day(s).
| Time | Temp. | Humidity | Pressure | Rain* | Wind** | Luminosity | Snow |
|---|---|---|---|---|---|---|---|
| 1787522636 | 22.78° C | 61% | 1005.5 hPa | 0 mm | - | 94 W/m² | - |
| 1787522331 | 22.78° C | 60% | 1005.4 hPa | 0 mm | - | 70 W/m² | - |
| 1787522026 | 23.33° C | 59% | 1005.5 hPa | 0 mm | - | 145 W/m² | - |
| 1787521724 | 22.78° C | 58% | 1005.7 hPa | 0 mm | - | 102 W/m² | - |
| 1787521414 | 22.78° C | 62% | 1005.5 hPa | 0 mm | - | 102 W/m² | - |
| 1787521114 | 22.78° C | 60% | 1005.8 hPa | 0 mm | - | 125 W/m² | - |
| 1787520809 | 22.78° C | 60% | 1005.6 hPa | 0 mm | - | 112 W/m² | - |
| 1787520504 | 22.78° C | 61% | 1005.7 hPa | 0 mm | - | 113 W/m² | - |
| 1787520201 | 22.78° C | 58% | 1005.9 hPa | 0 mm | - | 109 W/m² | - |
| 1787519901 | 22.78° C | 58% | 1005.8 hPa | 0 mm | - | 98 W/m² | - |
| 1787519596 | 22.78° C | 58% | 1005.9 hPa | 0 mm | - | 129 W/m² | - |
| 1787519295 | 23.33° C | 59% | 1006 hPa | 0 mm | - | 117 W/m² | - |
| 1787518991 | 23.33° C | 57% | 1006.1 hPa | 0 mm | - | 131 W/m² | - |
| 1787518686 | 23.33° C | 58% | 1005.9 hPa | 0 mm | - | 148 W/m² | - |
| 1787518381 | 23.33° C | 56% | 1006.1 hPa | 0 mm | - | 138 W/m² | - |
| 1787518077 | 23.89° C | 55% | 1006 hPa | 0 mm | - | 226 W/m² | - |
| 1787517773 | 23.89° C | 58% | 1006.1 hPa | 0 mm | - | 147 W/m² | - |
| 1787517469 | 24.44° C | 56% | 1006 hPa | 0 mm | - | 126 W/m² | - |
| 1787517165 | 24.44° C | 56% | 1006 hPa | 0 mm | - | 125 W/m² | - |
| 1787516864 | 25° C | 52% | 1005.9 hPa | 0 mm | - | 411 W/m² | - |
| 1787516559 | 25° C | 54% | 1006 hPa | 0 mm | - | 408 W/m² | - |
| 1787516259 | 24.44° C | 58% | 1005.9 hPa | 0 mm | - | 340 W/m² | - |
| 1787515954 | 24.44° C | 54% | 1006 hPa | 0 mm | - | 436 W/m² | - |
| 1787515650 | 24.44° C | 54% | 1006 hPa | 0 mm | - | 229 W/m² | - |
| 1787515345 | 25° C | 53% | 1006.1 hPa | 0 mm | - | 448 W/m² | - |
* Rain latest hour (hover to see other rain measurements)
** Current wind speed in m/s (hover to see current wind gust speed)